Ainsworth, NE

8:30 AM CDT on October 24, 2014 (GMT -0500)
Ainsworth Municipal | Change Station
CLOSE
Current Station
Airport
Location: Ainsworth,
Elevation: 2589 ft
Nearby Weather Stations

Elev 2589 ft 42.58 °N, 99.99 °W | Updated 15 minutes ago

Clear
Clear
48 °F
Feels Like 48 °F
N
5
Wind Variable Wind from West

Today
High -- | Low -- °F
--% Chance of Precip.
Yesterday
High -- | Low -- °F
Precip. -- in
8:03 AM 6:43 PM
New Moon, 0% visible
Pressure 29.93 in
Visibility 10.0 miles
Clouds Clear
Dew Point 36 °F
Humidity 66%
Rainfall 0.00 in
Snow Depth Not available.
UV 0 out of 12
Pollen 2.50 out of 12
Air Quality Not available.
Flu Activity Sporadic
METAR KANW 241315Z AUTO 26004KT 10SM CLR 09/03 A2993 RMK AO2 T00860025

More Conditions Fewer Conditions

Pressure 29.93 in
Visibility 10.0 miles
Clouds Clear
Dew Point 36 °F
Humidity 66%
Rainfall 0.00 in
Snow Depth Not available.
UV 0 out of 12
Pollen 2.50 out of 12
Air Quality Not available.
Flu Activity Sporadic
METAR KANW 241315Z AUTO 26004KT 10SM CLR 09/03 A2993 RMK AO2 T00860025

More Conditions Fewer Conditions

10-Day Weather Forecast

Almanac

Astronomy

Oct. 24, 2014 Rise Set
Actual Time 8:03 AM CDT 6:43 PM CDT
Civil Twilight 7:35 AM CDT 7:12 PM CDT
Nautical Twilight 7:02 AM CDT 7:45 PM CDT
Astronomical Twilight 6:29 AM CDT 8:18 PM CDT
Moon 8:45 AM CDT 7:23 PM CDT
Length of Visible Light 11h 37m
Length of Day
10h 39m
Tomorrow will be 2m 40s shorter.
New Moon, 0% of the Moon is Illuminated
Today
New Moon
Oct 30
First Quarter
Nov 6
Full
Nov 14
Last Quarter
Nov 22
New

Today's Extremes

State Highs State Lows

Community

WunderPhotos

Upload Photos

1,764,550 photos uploaded!

WunderBlogs® & News

Nearby

Snow Depth

Station Depth Elevation
No new snow has been reported.

Earthquake Activity

City Distance Mag. Time & Date
No recent earthquake activity has been reported nearby.
Minimum magnitude displayed is 2.5.

Coastal Water Temperatures

Place Temperature
No Stations Reporting

Nearby Weather Stations